Concord, NH

12:11 AM EDT on August 31, 2015 (GMT -0400)
East Concord | | Change Station
CLOSE
Current Station
Personal Weather Station
Location: Concord, NH
Elevation: 341 ft
Nearby Weather Stations

Elev 341 ft 43.24 °N, 71.53 °W | Updated 6 seconds ago

Scattered Clouds
Scattered Clouds
64.3 °F
Feels Like 64.3 °F
N
0.0
Wind Variable Wind from ESE
Gusts 0.0 mph

Today
High -- | Low -- °F
--% Chance of Precip.
Yesterday
High -- | Low -- °F
Precip. -- in
6:08 AM 7:23 PM
Full, 97% visible
Pressure 30.01 in
Visibility 10.0 miles
Clouds Scattered Clouds 8500 ft
Dew Point 62 °F
Humidity 94%
Rainfall 0.00 in
Snow Depth Not available.
UV 0 out of 12
Pollen 8.10 out of 12
Air Quality Not available.
Flu Activity Not available.
METAR KCON 310351Z AUTO 00000KT 10SM SCT085 18/17 A3001 RMK AO2 SLP161 T01780167 $
Pressure 30.01 in
Visibility 10.0 miles
Clouds Scattered Clouds 8500 ft
Dew Point 62 °F
Humidity 94%
Rainfall 0.00 in
Snow Depth Not available.
UV 0 out of 12
Pollen 8.10 out of 12
Air Quality Not available.
Flu Activity Not available.
METAR KCON 310351Z AUTO 00000KT 10SM SCT085 18/17 A3001 RMK AO2 SLP161 T01780167 $

10-Day Weather Forecast

×

Almanac

Astronomy

Aug. 31, 2015 Rise Set
Actual Time
Civil Twilight
Nautical Twilight
Astronomical Twilight
Moon
Length of Visible Light
Length of Day
Tomorrow will be .
, % of the Moon is Illuminated

Today's Extremes

State Highs State Lows

Community

WunderPhotos

Upload Photos

1,851,203 photos uploaded!

WunderBlogs® & News

Nearby

Air Quality

  Air Quality AQ Index Pollutant
Not available.

Snow Depth

Station Depth Elevation

Earthquake Activity

City Distance Mag. Time & Date
Minimum magnitude displayed is 2.5.

Coastal Water Temperatures

Place Temperature

Stations

Nearby Weather Stations

Station Location Temp. Windchill Dew Point Humidity Wind Precip. Elev Updated Type